sensor_id;sensor_type;location;lat;lon;timestamp;pressure;altitude;pressure_sealevel;temperature;humidity
29985;BME280;17387;42.690;23.328;2022-12-29T00:02:13;47754.16;;;-144.02;87.74
29985;BME280;17387;42.690;23.328;2022-12-29T00:04:39;47802.91;;;-144.02;87.59
29985;BME280;17387;42.690;23.328;2022-12-29T00:07:05;47794.78;;;-144.02;87.01
29985;BME280;17387;42.690;23.328;2022-12-29T00:09:31;47794.78;;;-144.02;87.21
29985;BME280;17387;42.690;23.328;2022-12-29T00:11:58;47790.72;;;-144.02;87.49
29985;BME280;17387;42.690;23.328;2022-12-29T00:14:23;47782.59;;;-144.02;87.70
29985;BME280;17387;42.690;23.328;2022-12-29T00:17:07;47754.16;;;-144.02;87.88
29985;BME280;17387;42.690;23.328;2022-12-29T00:19:33;47806.97;;;-144.02;88.12
29985;BME280;17387;42.690;23.328;2022-12-29T00:22:17;47762.28;;;-144.02;88.38
29985;BME280;17387;42.690;23.328;2022-12-29T00:25:01;47813.06;;;-144.02;88.72
29985;BME280;17387;42.690;23.328;2022-12-29T00:27:28;47782.59;;;-144.02;88.97
29985;BME280;17387;42.690;23.328;2022-12-29T00:30:16;47780.56;;;-144.02;88.51
29985;BME280;17387;42.690;23.328;2022-12-29T00:33:08;47776.50;;;-144.02;88.39
29985;BME280;17387;42.690;23.328;2022-12-29T00:38:24;47776.50;;;-144.02;88.82
29985;BME280;17387;42.690;23.328;2022-12-29T00:41:08;47766.34;;;-144.02;88.75
29985;BME280;17387;42.690;23.328;2022-12-29T00:43:52;47880.09;;;-144.02;88.77
29985;BME280;17387;42.690;23.328;2022-12-29T00:46:30;47756.19;;;-144.02;88.92
29985;BME280;17387;42.690;23.328;2022-12-29T00:48:56;47823.22;;;-144.02;88.84
29985;BME280;17387;42.690;23.328;2022-12-29T00:51:40;47788.69;;;-144.02;88.34
29985;BME280;17387;42.690;23.328;2022-12-29T00:54:05;47809.00;;;-144.02;88.12
29985;BME280;17387;42.690;23.328;2022-12-29T00:56:31;47800.88;;;-144.02;87.49
29985;BME280;17387;42.690;23.328;2022-12-29T00:59:00;47782.59;;;-144.02;87.63
29985;BME280;17387;42.690;23.328;2022-12-29T01:01:26;47839.47;;;-144.02;87.65
29985;BME280;17387;42.690;23.328;2022-12-29T01:03:52;47792.75;;;-144.02;87.49
29985;BME280;17387;42.690;23.328;2022-12-29T01:06:17;47776.50;;;-144.02;87.53
29985;BME280;17387;42.690;23.328;2022-12-29T01:08:42;47794.78;;;-144.02;86.61
29985;BME280;17387;42.690;23.328;2022-12-29T01:11:10;47794.78;;;-144.02;86.32
29985;BME280;17387;42.690;23.328;2022-12-29T01:13:36;47782.59;;;-144.02;86.53
29985;BME280;17387;42.690;23.328;2022-12-29T01:16:04;47819.16;;;-144.02;86.25
29985;BME280;17387;42.690;23.328;2022-12-29T01:18:30;47782.59;;;-144.02;87.08
29985;BME280;17387;42.690;23.328;2022-12-29T01:21:06;47802.91;;;-144.02;87.34
29985;BME280;17387;42.690;23.328;2022-12-29T01:23:32;47815.09;;;-144.02;87.19
29985;BME280;17387;42.690;23.328;2022-12-29T01:26:07;47770.41;;;-144.02;87.11
29985;BME280;17387;42.690;23.328;2022-12-29T01:28:33;47780.56;;;-144.02;87.57
29985;BME280;17387;42.690;23.328;2022-12-29T01:31:00;47817.13;;;-144.02;87.21
29985;BME280;17387;42.690;23.328;2022-12-29T01:33:25;47882.16;;;-144.02;87.30
29985;BME280;17387;42.690;23.328;2022-12-29T01:35:51;47772.44;;;-144.02;87.71
29985;BME280;17387;42.690;23.328;2022-12-29T01:38:16;47725.72;;;-144.02;88.06
29985;BME280;17387;42.690;23.328;2022-12-29T01:40:45;47819.16;;;-144.02;87.82
29985;BME280;17387;42.690;23.328;2022-12-29T01:43:13;47790.72;;;-144.02;88.19
29985;BME280;17387;42.690;23.328;2022-12-29T01:45:44;47837.44;;;-144.02;88.27
29985;BME280;17387;42.690;23.328;2022-12-29T01:48:11;47782.59;;;-144.02;88.64
29985;BME280;17387;42.690;23.328;2022-12-29T01:50:44;47802.91;;;-144.02;89.24
29985;BME280;17387;42.690;23.328;2022-12-29T01:53:38;47796.81;;;-144.02;89.04
29985;BME280;17387;42.690;23.328;2022-12-29T01:56:06;47790.72;;;-144.02;89.16
29985;BME280;17387;42.690;23.328;2022-12-29T01:58:37;47756.19;;;-144.02;89.42
29985;BME280;17387;42.690;23.328;2022-12-29T02:01:04;47792.75;;;-144.02;89.38
29985;BME280;17387;42.690;23.328;2022-12-29T02:03:30;47786.66;;;-144.02;89.55
29985;BME280;17387;42.690;23.328;2022-12-29T02:06:18;47802.91;;;-144.02;89.82
29985;BME280;17387;42.690;23.328;2022-12-29T02:08:47;47823.22;;;-144.02;89.59
29985;BME280;17387;42.690;23.328;2022-12-29T02:11:16;47823.22;;;-144.02;89.23
29985;BME280;17387;42.690;23.328;2022-12-29T02:13:41;47762.28;;;-144.02;88.71
29985;BME280;17387;42.690;23.328;2022-12-29T02:16:40;47758.22;;;-144.02;88.33
29985;BME280;17387;42.690;23.328;2022-12-29T02:30:30;47762.28;;;-144.02;88.79
29985;BME280;17387;42.690;23.328;2022-12-29T02:38:23;47798.84;;;-144.02;88.25
29985;BME280;17387;42.690;23.328;2022-12-29T02:44:12;47788.69;;;-144.02;88.35
29985;BME280;17387;42.690;23.328;2022-12-29T02:46:51;47737.91;;;-144.02;87.94
29985;BME280;17387;42.690;23.328;2022-12-29T02:49:25;47782.59;;;-144.02;87.34
29985;BME280;17387;42.690;23.328;2022-12-29T02:52:16;47790.72;;;-144.02;87.27
29985;BME280;17387;42.690;23.328;2022-12-29T02:54:42;47788.69;;;-144.02;87.51
29985;BME280;17387;42.690;23.328;2022-12-29T02:59:42;47802.91;;;-144.02;86.79
29985;BME280;17387;42.690;23.328;2022-12-29T03:07:44;47790.72;;;-144.02;85.82
29985;BME280;17387;42.690;23.328;2022-12-29T03:10:29;47798.84;;;-144.02;85.58
29985;BME280;17387;42.690;23.328;2022-12-29T03:16:35;47774.47;;;-144.02;86.35
29985;BME280;17387;42.690;23.328;2022-12-29T03:19:21;47794.78;;;-144.02;86.39
29985;BME280;17387;42.690;23.328;2022-12-29T03:21:54;47780.56;;;-144.02;86.19
29985;BME280;17387;42.690;23.328;2022-12-29T03:24:43;47786.66;;;-144.02;86.70
29985;BME280;17387;42.690;23.328;2022-12-29T03:27:15;47811.03;;;-144.02;86.85
29985;BME280;17387;42.690;23.328;2022-12-29T03:29:50;47811.03;;;-144.02;87.36
29985;BME280;17387;42.690;23.328;2022-12-29T03:32:26;47831.34;;;-144.02;87.87
29985;BME280;17387;42.690;23.328;2022-12-29T03:34:54;47827.28;;;-144.02;88.74
29985;BME280;17387;42.690;23.328;2022-12-29T03:37:27;47766.34;;;-144.02;89.20
29985;BME280;17387;42.690;23.328;2022-12-29T03:39:54;47794.78;;;-144.02;89.04
29985;BME280;17387;42.690;23.328;2022-12-29T03:42:23;47815.09;;;-144.02;89.89
29985;BME280;17387;42.690;23.328;2022-12-29T03:44:54;47780.56;;;-144.02;89.88
29985;BME280;17387;42.690;23.328;2022-12-29T03:47:21;47782.59;;;-144.02;90.22
29985;BME280;17387;42.690;23.328;2022-12-29T03:49:48;47813.06;;;-144.02;91.11
29985;BME280;17387;42.690;23.328;2022-12-29T03:52:14;47809.00;;;-144.02;91.69
29985;BME280;17387;42.690;23.328;2022-12-29T03:54:39;47804.94;;;-144.02;92.14
29985;BME280;17387;42.690;23.328;2022-12-29T03:57:05;47843.53;;;-144.02;92.54
29985;BME280;17387;42.690;23.328;2022-12-29T03:59:30;47790.72;;;-144.02;93.03
29985;BME280;17387;42.690;23.328;2022-12-29T04:01:55;47796.81;;;-144.02;93.03
29985;BME280;17387;42.690;23.328;2022-12-29T04:04:21;47782.59;;;-144.02;93.18
29985;BME280;17387;42.690;23.328;2022-12-29T04:06:49;47776.50;;;-144.02;93.22
29985;BME280;17387;42.690;23.328;2022-12-29T04:09:15;47733.84;;;-144.02;93.22
29985;BME280;17387;42.690;23.328;2022-12-29T04:11:40;47811.03;;;-144.02;93.30
29985;BME280;17387;42.690;23.328;2022-12-29T04:14:06;47802.91;;;-144.02;93.65
29985;BME280;17387;42.690;23.328;2022-12-29T04:16:31;47843.53;;;-144.02;93.94
29985;BME280;17387;42.690;23.328;2022-12-29T04:18:56;47843.53;;;-144.02;93.84
29985;BME280;17387;42.690;23.328;2022-12-29T04:21:22;47784.63;;;-144.02;93.99
29985;BME280;17387;42.690;23.328;2022-12-29T04:23:47;47827.28;;;-144.02;94.11
29985;BME280;17387;42.690;23.328;2022-12-29T04:26:13;47811.03;;;-144.02;94.42
29985;BME280;17387;42.690;23.328;2022-12-29T04:28:38;47802.91;;;-144.02;94.23
29985;BME280;17387;42.690;23.328;2022-12-29T04:31:04;47776.50;;;-144.02;94.42
29985;BME280;17387;42.690;23.328;2022-12-29T04:33:29;47806.97;;;-144.02;94.78
29985;BME280;17387;42.690;23.328;2022-12-29T04:35:55;47768.38;;;-144.02;95.02
29985;BME280;17387;42.690;23.328;2022-12-29T04:38:22;47796.81;;;-144.02;94.82
29985;BME280;17387;42.690;23.328;2022-12-29T04:40:48;47802.91;;;-144.02;95.09
29985;BME280;17387;42.690;23.328;2022-12-29T04:43:14;47827.28;;;-144.02;95.39
29985;BME280;17387;42.690;23.328;2022-12-29T04:45:44;47821.19;;;-144.02;95.33
29985;BME280;17387;42.690;23.328;2022-12-29T04:48:09;47804.94;;;-144.02;95.50
29985;BME280;17387;42.690;23.328;2022-12-29T04:50:35;47839.47;;;-144.02;95.66
29985;BME280;17387;42.690;23.328;2022-12-29T04:53:01;47798.84;;;-144.02;95.88
29985;BME280;17387;42.690;23.328;2022-12-29T04:55:26;47782.59;;;-144.02;96.02
29985;BME280;17387;42.690;23.328;2022-12-29T04:57:52;47788.69;;;-144.02;96.41
29985;BME280;17387;42.690;23.328;2022-12-29T05:00:17;47823.22;;;-144.02;95.75
29985;BME280;17387;42.690;23.328;2022-12-29T05:02:43;47809.00;;;-144.02;95.96
29985;BME280;17387;42.690;23.328;2022-12-29T05:05:08;47794.78;;;-144.02;96.12
29985;BME280;17387;42.690;23.328;2022-12-29T05:07:34;47784.63;;;-144.02;96.28
29985;BME280;17387;42.690;23.328;2022-12-29T05:09:59;47786.66;;;-144.02;96.37
29985;BME280;17387;42.690;23.328;2022-12-29T05:12:25;47782.59;;;-144.02;96.01
29985;BME280;17387;42.690;23.328;2022-12-29T05:14:50;47806.97;;;-144.02;95.74
29985;BME280;17387;42.690;23.328;2022-12-29T05:20:37;47839.47;;;-144.02;94.97
29985;BME280;17387;42.690;23.328;2022-12-29T05:23:02;47815.09;;;-144.02;94.29
29985;BME280;17387;42.690;23.328;2022-12-29T05:25:28;47802.91;;;-144.02;93.41
29985;BME280;17387;42.690;23.328;2022-12-29T05:27:53;47831.34;;;-144.02;92.46
29985;BME280;17387;42.690;23.328;2022-12-29T05:30:19;47813.06;;;-144.02;91.86
29985;BME280;17387;42.690;23.328;2022-12-29T05:32:44;47896.38;;;-144.02;91.32
29985;BME280;17387;42.690;23.328;2022-12-29T05:35:09;47800.88;;;-144.02;90.78
29985;BME280;17387;42.690;23.328;2022-12-29T05:37:35;47806.97;;;-144.02;90.14
29985;BME280;17387;42.690;23.328;2022-12-29T05:40:00;47786.66;;;-144.02;89.83
29985;BME280;17387;42.690;23.328;2022-12-29T05:42:25;47774.47;;;-144.02;89.46
29985;BME280;17387;42.690;23.328;2022-12-29T05:44:51;47790.72;;;-144.02;89.37
29985;BME280;17387;42.690;23.328;2022-12-29T05:47:19;47786.66;;;-144.02;88.85
29985;BME280;17387;42.690;23.328;2022-12-29T05:49:44;47804.94;;;-144.02;88.67
29985;BME280;17387;42.690;23.328;2022-12-29T05:52:43;47827.28;;;-144.02;88.33
29985;BME280;17387;42.690;23.328;2022-12-29T05:55:09;47815.09;;;-144.02;87.79
29985;BME280;17387;42.690;23.328;2022-12-29T05:57:35;47819.16;;;-144.02;88.36
29985;BME280;17387;42.690;23.328;2022-12-29T06:00:00;47741.97;;;-144.02;88.35
29985;BME280;17387;42.690;23.328;2022-12-29T06:02:26;47766.34;;;-144.02;88.34
29985;BME280;17387;42.690;23.328;2022-12-29T06:04:51;47790.72;;;-144.02;88.02
29985;BME280;17387;42.690;23.328;2022-12-29T06:07:17;47815.09;;;-144.02;87.20
29985;BME280;17387;42.690;23.328;2022-12-29T06:09:42;47798.84;;;-144.02;87.00
29985;BME280;17387;42.690;23.328;2022-12-29T06:12:07;47806.97;;;-144.02;86.73
29985;BME280;17387;42.690;23.328;2022-12-29T06:14:33;47772.44;;;-144.02;86.92
29985;BME280;17387;42.690;23.328;2022-12-29T06:16:58;47788.69;;;-144.02;87.82
29985;BME280;17387;42.690;23.328;2022-12-29T06:19:25;47770.41;;;-144.02;88.17
29985;BME280;17387;42.690;23.328;2022-12-29T06:21:50;47782.59;;;-144.02;88.51
29985;BME280;17387;42.690;23.328;2022-12-29T06:24:17;47735.88;;;-144.02;89.13
29985;BME280;17387;42.690;23.328;2022-12-29T06:26:43;47790.72;;;-144.02;89.73
29985;BME280;17387;42.690;23.328;2022-12-29T06:29:08;47782.59;;;-144.02;89.13
29985;BME280;17387;42.690;23.328;2022-12-29T06:31:34;47727.75;;;-144.02;88.08
29985;BME280;17387;42.690;23.328;2022-12-29T06:33:59;47752.13;;;-144.02;88.12
29985;BME280;17387;42.690;23.328;2022-12-29T06:36:25;47766.34;;;-144.02;87.35
29985;BME280;17387;42.690;23.328;2022-12-29T06:38:50;47782.59;;;-144.02;88.44
29985;BME280;17387;42.690;23.328;2022-12-29T06:41:18;47794.78;;;-144.02;89.07
29985;BME280;17387;42.690;23.328;2022-12-29T06:43:44;47764.31;;;-144.02;88.53
29985;BME280;17387;42.690;23.328;2022-12-29T06:46:09;47798.84;;;-144.02;87.23
29985;BME280;17387;42.690;23.328;2022-12-29T06:48:35;47762.28;;;-144.02;86.07
29985;BME280;17387;42.690;23.328;2022-12-29T06:51:00;47794.78;;;-144.02;86.54
29985;BME280;17387;42.690;23.328;2022-12-29T06:53:26;47790.72;;;-144.02;85.60
29985;BME280;17387;42.690;23.328;2022-12-29T06:55:51;47802.91;;;-144.02;83.96
29985;BME280;17387;42.690;23.328;2022-12-29T06:58:17;47776.50;;;-144.02;83.81
29985;BME280;17387;42.690;23.328;2022-12-29T07:00:42;47770.41;;;-144.02;83.68
29985;BME280;17387;42.690;23.328;2022-12-29T07:03:08;47766.34;;;-144.02;82.91
29985;BME280;17387;42.690;23.328;2022-12-29T07:05:33;47766.34;;;-144.02;82.78
29985;BME280;17387;42.690;23.328;2022-12-29T07:07:59;47796.81;;;-144.02;83.01
29985;BME280;17387;42.690;23.328;2022-12-29T07:10:25;47774.47;;;-144.02;83.58
29985;BME280;17387;42.690;23.328;2022-12-29T07:12:50;47770.41;;;-144.02;82.96
29985;BME280;17387;42.690;23.328;2022-12-29T07:15:16;47784.63;;;-144.02;82.38
29985;BME280;17387;42.690;23.328;2022-12-29T07:17:41;47758.22;;;-144.02;82.57
29985;BME280;17387;42.690;23.328;2022-12-29T07:20:08;47768.38;;;-144.02;83.18
29985;BME280;17387;42.690;23.328;2022-12-29T07:22:33;47729.78;;;-144.02;83.08
29985;BME280;17387;42.690;23.328;2022-12-29T07:24:59;47768.38;;;-144.02;82.54
29985;BME280;17387;42.690;23.328;2022-12-29T07:27:24;47776.50;;;-144.02;81.33
29985;BME280;17387;42.690;23.328;2022-12-29T07:29:50;47717.59;;;-144.02;80.74
29985;BME280;17387;42.690;23.328;2022-12-29T07:32:15;47876.06;;;-144.02;79.91
29985;BME280;17387;42.690;23.328;2022-12-29T07:34:41;47770.41;;;-144.02;79.44
29985;BME280;17387;42.690;23.328;2022-12-29T07:37:06;47782.59;;;-144.02;80.44
29985;BME280;17387;42.690;23.328;2022-12-29T07:39:32;47786.66;;;-144.02;80.30
29985;BME280;17387;42.690;23.328;2022-12-29T07:41:57;47750.09;;;-144.02;80.23
29985;BME280;17387;42.690;23.328;2022-12-29T07:44:22;47729.78;;;-144.02;79.91
29985;BME280;17387;42.690;23.328;2022-12-29T07:46:48;47756.19;;;-144.02;79.15
29985;BME280;17387;42.690;23.328;2022-12-29T07:49:13;47766.34;;;-144.02;78.15
29985;BME280;17387;42.690;23.328;2022-12-29T07:51:38;47758.22;;;-144.02;77.71
29985;BME280;17387;42.690;23.328;2022-12-29T07:54:04;47776.50;;;-144.02;76.96
29985;BME280;17387;42.690;23.328;2022-12-29T07:56:29;47756.19;;;-144.02;76.78
29985;BME280;17387;42.690;23.328;2022-12-29T07:58:58;47756.19;;;-144.02;75.53
29985;BME280;17387;42.690;23.328;2022-12-29T08:01:23;47794.78;;;-144.02;76.01
29985;BME280;17387;42.690;23.328;2022-12-29T08:03:48;47766.34;;;-144.02;75.41
29985;BME280;17387;42.690;23.328;2022-12-29T08:06:14;47768.38;;;-144.02;75.95
29985;BME280;17387;42.690;23.328;2022-12-29T08:08:39;47758.22;;;-144.02;76.28
29985;BME280;17387;42.690;23.328;2022-12-29T08:11:05;47725.72;;;-144.02;76.68
29985;BME280;17387;42.690;23.328;2022-12-29T08:13:30;47693.22;;;-144.02;76.02
29985;BME280;17387;42.690;23.328;2022-12-29T08:15:57;47725.72;;;-144.02;74.94
29985;BME280;17387;42.690;23.328;2022-12-29T08:18:23;47752.13;;;-144.02;74.97
29985;BME280;17387;42.690;23.328;2022-12-29T08:20:49;47668.84;;;-144.02;75.97
29985;BME280;17387;42.690;23.328;2022-12-29T08:23:14;47741.97;;;-144.02;75.82
29985;BME280;17387;42.690;23.328;2022-12-29T08:25:40;47884.19;;;-144.02;76.35
29985;BME280;17387;42.690;23.328;2022-12-29T08:28:05;47735.88;;;-144.02;76.19
29985;BME280;17387;42.690;23.328;2022-12-29T08:30:31;47705.41;;;-144.02;76.40
29985;BME280;17387;42.690;23.328;2022-12-29T08:32:56;47754.16;;;-144.02;75.10
29985;BME280;17387;42.690;23.328;2022-12-29T08:35:22;47880.09;;;-144.02;74.75
29985;BME280;17387;42.690;23.328;2022-12-29T08:37:47;47697.28;;;-144.02;74.43
29985;BME280;17387;42.690;23.328;2022-12-29T08:40:12;47721.66;;;-144.02;74.57
29985;BME280;17387;42.690;23.328;2022-12-29T08:42:39;47715.56;;;-144.02;74.50
29985;BME280;17387;42.690;23.328;2022-12-29T08:45:05;47739.94;;;-144.02;74.50
29985;BME280;17387;42.690;23.328;2022-12-29T08:47:31;47752.13;;;-144.02;74.44
29985;BME280;17387;42.690;23.328;2022-12-29T08:49:56;47725.72;;;-144.02;73.59
29985;BME280;17387;42.690;23.328;2022-12-29T08:52:22;47758.22;;;-144.02;73.53
29985;BME280;17387;42.690;23.328;2022-12-29T08:54:48;47772.44;;;-144.02;74.46
29985;BME280;17387;42.690;23.328;2022-12-29T08:57:13;47766.34;;;-144.02;74.62
29985;BME280;17387;42.690;23.328;2022-12-29T08:59:39;47741.97;;;-144.02;74.51
29985;BME280;17387;42.690;23.328;2022-12-29T09:02:05;47725.72;;;-144.02;74.30
29985;BME280;17387;42.690;23.328;2022-12-29T09:04:31;47737.91;;;-144.02;74.04
29985;BME280;17387;42.690;23.328;2022-12-29T09:06:56;47762.28;;;-144.02;73.88
29985;BME280;17387;42.690;23.328;2022-12-29T09:09:22;47739.94;;;-144.02;72.77
29985;BME280;17387;42.690;23.328;2022-12-29T09:11:47;47768.38;;;-144.02;74.53
29985;BME280;17387;42.690;23.328;2022-12-29T09:14:13;47713.53;;;-144.02;74.80
29985;BME280;17387;42.690;23.328;2022-12-29T09:16:39;47758.22;;;-144.02;74.17
29985;BME280;17387;42.690;23.328;2022-12-29T09:19:24;47794.78;;;-144.02;72.83
29985;BME280;17387;42.690;23.328;2022-12-29T09:21:49;47752.13;;;-144.02;72.75
29985;BME280;17387;42.690;23.328;2022-12-29T09:24:14;47741.97;;;-144.02;73.00
29985;BME280;17387;42.690;23.328;2022-12-29T09:26:40;47746.03;;;-144.02;73.42
29985;BME280;17387;42.690;23.328;2022-12-29T09:29:05;47780.56;;;-144.02;73.31
29985;BME280;17387;42.690;23.328;2022-12-29T09:31:30;47750.09;;;-144.02;71.98
29985;BME280;17387;42.690;23.328;2022-12-29T09:33:56;47733.84;;;-144.02;72.16
29985;BME280;17387;42.690;23.328;2022-12-29T09:36:21;47717.59;;;-144.02;72.33
29985;BME280;17387;42.690;23.328;2022-12-29T09:38:49;47758.22;;;-144.02;71.87
29985;BME280;17387;42.690;23.328;2022-12-29T09:41:22;47737.91;;;-144.02;71.71
29985;BME280;17387;42.690;23.328;2022-12-29T09:46:54;47733.84;;;-144.02;70.60
29985;BME280;17387;42.690;23.328;2022-12-29T09:49:42;47744.00;;;-144.02;69.91
29985;BME280;17387;42.690;23.328;2022-12-29T09:52:36;47733.84;;;-144.02;70.37
29985;BME280;17387;42.690;23.328;2022-12-29T09:55:23;47746.03;;;-144.02;71.27
29985;BME280;17387;42.690;23.328;2022-12-29T09:57:58;47705.41;;;-144.02;71.58
29985;BME280;17387;42.690;23.328;2022-12-29T10:00:39;47733.84;;;-144.02;71.87
29985;BME280;17387;42.690;23.328;2022-12-29T10:03:17;47744.00;;;-144.02;71.81
29985;BME280;17387;42.690;23.328;2022-12-29T10:08:19;47721.66;;;-144.02;71.85
29985;BME280;17387;42.690;23.328;2022-12-29T10:10:57;47733.84;;;-144.02;70.79
29985;BME280;17387;42.690;23.328;2022-12-29T10:19:20;47746.03;;;-144.02;71.60
29985;BME280;17387;42.690;23.328;2022-12-29T10:24:18;47733.84;;;-144.02;70.70
29985;BME280;17387;42.690;23.328;2022-12-29T10:26:46;47711.50;;;-144.02;70.89
29985;BME280;17387;42.690;23.328;2022-12-29T10:29:18;47737.91;;;-144.02;71.74
29985;BME280;17387;42.690;23.328;2022-12-29T10:31:48;47746.03;;;-144.02;70.97
29985;BME280;17387;42.690;23.328;2022-12-29T10:34:21;47721.66;;;-144.02;70.79
29985;BME280;17387;42.690;23.328;2022-12-29T10:36:50;47752.13;;;-144.02;69.82
29985;BME280;17387;42.690;23.328;2022-12-29T10:39:21;47737.91;;;-144.02;68.60
29985;BME280;17387;42.690;23.328;2022-12-29T10:44:31;47733.84;;;-144.02;68.18
29985;BME280;17387;42.690;23.328;2022-12-29T10:47:03;47709.47;;;-144.02;68.17
29985;BME280;17387;42.690;23.328;2022-12-29T10:49:30;47741.97;;;-144.02;67.72
29985;BME280;17387;42.690;23.328;2022-12-29T10:52:02;47729.78;;;-144.02;68.27
29985;BME280;17387;42.690;23.328;2022-12-29T10:57:03;47729.78;;;-144.02;68.87
29985;BME280;17387;42.690;23.328;2022-12-29T10:59:33;47770.41;;;-144.02;69.67
29985;BME280;17387;42.690;23.328;2022-12-29T11:04:48;47750.09;;;-144.02;69.89
29985;BME280;17387;42.690;23.328;2022-12-29T11:07:19;47715.56;;;-144.02;69.56
29985;BME280;17387;42.690;23.328;2022-12-29T11:09:46;47748.06;;;-144.02;69.91
29985;BME280;17387;42.690;23.328;2022-12-29T11:17:58;47713.53;;;-144.02;70.17
29985;BME280;17387;42.690;23.328;2022-12-29T11:20:38;47768.38;;;-144.02;69.77
29985;BME280;17387;42.690;23.328;2022-12-29T11:23:20;47672.91;;;-144.02;69.54
29985;BME280;17387;42.690;23.328;2022-12-29T11:25:47;47693.22;;;-144.02;69.56
29985;BME280;17387;42.690;23.328;2022-12-29T11:28:30;47695.25;;;-144.02;69.93
29985;BME280;17387;42.690;23.328;2022-12-29T11:31:01;47782.59;;;-144.02;70.09
29985;BME280;17387;42.690;23.328;2022-12-29T11:33:38;47693.22;;;-144.02;69.82
29985;BME280;17387;42.690;23.328;2022-12-29T11:36:11;47784.63;;;-144.02;69.22
29985;BME280;17387;42.690;23.328;2022-12-29T11:38:40;47687.13;;;-144.02;69.61
29985;BME280;17387;42.690;23.328;2022-12-29T11:41:11;47685.09;;;-144.02;69.33
29985;BME280;17387;42.690;23.328;2022-12-29T11:43:40;47723.69;;;-144.02;69.38
29985;BME280;17387;42.690;23.328;2022-12-29T11:46:14;47752.13;;;-144.02;69.25
29985;BME280;17387;42.690;23.328;2022-12-29T11:48:41;47729.78;;;-144.02;69.41
29985;BME280;17387;42.690;23.328;2022-12-29T11:51:07;47689.16;;;-144.02;69.57
29985;BME280;17387;42.690;23.328;2022-12-29T11:53:42;47711.50;;;-144.02;69.25
29985;BME280;17387;42.690;23.328;2022-12-29T11:56:12;47693.22;;;-144.02;69.85
29985;BME280;17387;42.690;23.328;2022-12-29T11:58:39;47752.13;;;-144.02;69.69
29985;BME280;17387;42.690;23.328;2022-12-29T12:01:40;47731.81;;;-144.02;69.44
29985;BME280;17387;42.690;23.328;2022-12-29T12:04:21;47721.66;;;-144.02;68.71
29985;BME280;17387;42.690;23.328;2022-12-29T12:07:12;47739.94;;;-144.02;68.48
29985;BME280;17387;42.690;23.328;2022-12-29T12:09:45;47744.00;;;-144.02;68.99
29985;BME280;17387;42.690;23.328;2022-12-29T12:12:34;47729.78;;;-144.02;68.83
29985;BME280;17387;42.690;23.328;2022-12-29T12:15:02;47778.53;;;-144.02;67.90
29985;BME280;17387;42.690;23.328;2022-12-29T12:17:37;47709.47;;;-144.02;67.57
29985;BME280;17387;42.690;23.328;2022-12-29T12:20:16;47739.94;;;-144.02;67.29
29985;BME280;17387;42.690;23.328;2022-12-29T12:22:53;47754.16;;;-144.02;67.22
29985;BME280;17387;42.690;23.328;2022-12-29T12:25:34;47713.53;;;-144.02;67.44
29985;BME280;17387;42.690;23.328;2022-12-29T12:30:44;47723.69;;;-144.02;67.32
29985;BME280;17387;42.690;23.328;2022-12-29T12:33:35;47725.72;;;-144.02;67.59
29985;BME280;17387;42.690;23.328;2022-12-29T12:59:22;47721.66;;;-144.02;67.79
29985;BME280;17387;42.690;23.328;2022-12-29T13:04:48;47741.97;;;-144.02;69.01
29985;BME280;17387;42.690;23.328;2022-12-29T13:20:52;47725.72;;;-144.02;72.40
29985;BME280;17387;42.690;23.328;2022-12-29T13:26:33;47707.44;;;-144.02;71.94
29985;BME280;17387;42.690;23.328;2022-12-29T13:29:12;47697.28;;;-144.02;72.23
29985;BME280;17387;42.690;23.328;2022-12-29T13:36:42;47737.91;;;-144.02;71.86
29985;BME280;17387;42.690;23.328;2022-12-29T13:39:42;47741.97;;;-144.02;71.76
29985;BME280;17387;42.690;23.328;2022-12-29T13:42:07;47737.91;;;-144.02;71.99
29985;BME280;17387;42.690;23.328;2022-12-29T13:44:40;47737.91;;;-144.02;71.82
29985;BME280;17387;42.690;23.328;2022-12-29T13:47:25;47697.28;;;-144.02;72.02
29985;BME280;17387;42.690;23.328;2022-12-29T13:49:52;47719.63;;;-144.02;71.94
29985;BME280;17387;42.690;23.328;2022-12-29T13:52:27;47668.84;;;-144.02;72.06
29985;BME280;17387;42.690;23.328;2022-12-29T14:00:16;47729.78;;;-144.02;72.10
29985;BME280;17387;42.690;23.328;2022-12-29T14:07:49;47709.47;;;-144.02;72.68
29985;BME280;17387;42.690;23.328;2022-12-29T14:10:37;47752.13;;;-144.02;72.43
29985;BME280;17387;42.690;23.328;2022-12-29T14:13:13;47674.94;;;-144.02;72.67
29985;BME280;17387;42.690;23.328;2022-12-29T14:15:42;47725.72;;;-144.02;72.63
29985;BME280;17387;42.690;23.328;2022-12-29T14:18:12;47770.41;;;-144.02;73.26
29985;BME280;17387;42.690;23.328;2022-12-29T14:20:47;47681.03;;;-144.02;73.63
29985;BME280;17387;42.690;23.328;2022-12-29T14:23:25;47762.28;;;-144.02;74.47
29985;BME280;17387;42.690;23.328;2022-12-29T14:28:40;47729.78;;;-144.02;74.53
29985;BME280;17387;42.690;23.328;2022-12-29T14:39:04;47709.47;;;-144.02;75.41
29985;BME280;17387;42.690;23.328;2022-12-29T14:42:19;47737.91;;;-144.02;76.18
29985;BME280;17387;42.690;23.328;2022-12-29T14:44:59;47695.25;;;-144.02;75.74
29985;BME280;17387;42.690;23.328;2022-12-29T14:47:37;47697.28;;;-144.02;76.62
29985;BME280;17387;42.690;23.328;2022-12-29T14:50:22;47739.94;;;-144.02;76.50
29985;BME280;17387;42.690;23.328;2022-12-29T14:52:59;47705.41;;;-144.02;76.62
29985;BME280;17387;42.690;23.328;2022-12-29T14:58:19;47770.41;;;-144.02;77.27
29985;BME280;17387;42.690;23.328;2022-12-29T15:00:46;47776.50;;;-144.02;77.63
29985;BME280;17387;42.690;23.328;2022-12-29T15:03:22;47778.53;;;-144.02;78.34
29985;BME280;17387;42.690;23.328;2022-12-29T15:05:53;47796.81;;;-144.02;78.63